Latest Weather Observations for Marion Reef

IDQ60801

Issued at 4:02 pm EST Sunday 15 September 2019 (issued every 10 minutes, with the page automatically refreshed every 10 minutes)

About weather observations | Map of weather stations | Latest weather observations for QLD | Other Formats
Station Details ID: 200704 Name: MARION REEF Lat: -19.10 Lon: 152.39 Height: 2.0 m
Data from the previous 72 hours. | See also: Recent months for locations in Queensland
Date/Time
EST
Temp
°C
App
Temp
°C
Dew
Point
°C
Rel
Hum
%
Delta-T
°C
Wind Press
QNH
hPa
Press
MSL
hPa
Rain since
9am
mm
Dir  Spd
km/h
Gust
km/h
Spd
kts
Gust
kts
15/04:00pm 22.8 - - - - ESE 28 33 15 18 1020.4 1020.4 -
15/03:30pm 22.8 - - - - ESE 30 33 16 18 1020.0 1020.0 -
15/03:00pm 22.9 - - - - ESE 28 33 15 18 1020.1 1020.1 -
15/02:30pm 22.9 - - - - ESE 28 32 15 17 1020.0 1020.0 -
15/02:00pm 22.8 - - - - ESE 28 32 15 17 1020.2 1020.2 -
15/01:30pm 22.8 - - - - ESE 30 35 16 19 1020.4 1020.4 -
15/01:00pm 22.7 - - - - E 32 35 17 19 1020.5 1020.5 -
15/12:30pm 22.9 - - - - ESE 30 35 16 19 1020.8 1020.8 -
15/12:00pm 23.0 - - - - ESE 32 41 17 22 1021.1 1021.1 -
15/11:30am 23.0 - - - - ESE 32 37 17 20 1021.5 1021.5 -
15/11:00am 22.8 - - - - ESE 35 39 19 21 1021.5 1021.5 -
15/10:30am 23.0 - - - - E 35 43 19 23 1021.8 1021.8 -
15/10:00am 22.9 - - - - ESE 33 43 18 23 1021.8 1021.8 -
15/09:30am 22.5 - - - - ESE 32 39 17 21 1022.1 1022.1 -
15/09:00am 22.5 - - - - ESE 32 39 17 21 1022.1 1022.1 -
15/08:30am 22.6 - - - - ESE 32 37 17 20 1021.9 1021.9 -
15/08:00am 22.5 - - - - E 35 41 19 22 1021.6 1021.6 -
15/07:30am 22.4 - - - - ESE 32 39 17 21 1021.4 1021.4 -
15/07:00am 22.4 - - - - ESE 35 41 19 22 1021.0 1021.0 -
15/06:30am 22.2 - - - - ESE 35 41 19 22 1020.6 1020.6 -
15/06:00am 22.1 - - - - ESE 35 44 19 24 1020.3 1020.3 -
15/05:30am 22.0 - - - - ESE 33 41 18 22 1019.8 1019.8 -
15/05:00am 22.2 - - - - ESE 32 41 17 22 1019.8 1019.8 -
15/04:30am 21.9 - - - - SE 33 41 18 22 1019.6 1019.6 -
15/04:00am 22.2 - - - - SE 37 43 20 23 1019.3 1019.3 -
15/03:30am 21.8 - - - - SE 32 39 17 21 1019.1 1019.1 -
15/03:00am 22.0 - - - - SE 37 46 20 25 1019.0 1019.0 -
15/02:30am 22.1 - - - - ESE 37 43 20 23 1019.1 1019.1 -
15/02:00am 22.1 - - - - SE 35 43 19 23 1019.3 1019.3 -
15/01:30am 21.8 - - - - SE 32 39 17 21 1019.8 1019.8 -
15/01:00am 21.9 - - - - SE 33 39 18 21 1019.9 1019.9 -
15/12:30am 22.1 - - - - SE 35 41 19 22 1020.3 1020.3 -
15/12:00am 22.2 - - - - SE 35 41 19 22 1020.5 1020.5 -
 
Date/Time
EST
Temp
°C
App
Temp
°C
Dew
Point
°C
Rel
Hum
%
Delta-T
°C
Wind Press
QNH
hPa
Press
MSL
hPa
Rain since
9am
mm
Dir  Spd
km/h
Gust
km/h
Spd
kts
Gust
kts
14/11:30pm 22.1 - - - - SE 33 41 18 22 1020.7 1020.7 -
14/11:00pm 22.1 - - - - SE 35 41 19 22 1020.7 1020.7 -
14/10:30pm 22.2 - - - - SE 35 43 19 23 1020.9 1020.9 -
14/10:00pm 22.2 - - - - SSE 35 43 19 23 1020.9 1020.9 -
14/09:30pm 22.2 - - - - SE 35 41 19 22 1020.8 1020.8 -
14/09:00pm 22.2 - - - - SE 35 43 19 23 1020.9 1020.9 -
14/08:30pm 22.3 - - - - SE 33 41 18 22 1021.0 1021.0 -
14/08:00pm 22.3 - - - - SE 33 43 18 23 1020.9 1020.9 -
14/07:30pm 22.3 - - - - SE 33 39 18 21 1020.6 1020.6 -
14/07:00pm 22.4 - - - - SE 33 43 18 23 1020.3 1020.3 -
14/06:30pm 22.3 - - - - SSE 32 41 17 22 1020.1 1020.1 -
14/06:00pm 22.4 - - - - SSE 33 37 18 20 1019.6 1019.6 -
14/05:30pm 22.4 - - - - SSE 32 37 17 20 1019.3 1019.3 -
14/05:00pm 22.5 - - - - SSE 30 35 16 19 1019.1 1019.1 -
14/04:30pm 22.4 - - - - SSE 28 35 15 19 1019.0 1019.0 -
14/04:00pm 22.4 - - - - SSE 32 35 17 19 1018.8 1018.8 -
14/03:30pm 22.5 - - - - SSE 32 41 17 22 1018.8 1018.8 -
14/03:00pm 22.7 - - - - SSE 30 35 16 19 1018.7 1018.7 -
14/02:30pm 22.4 - - - - SSE 30 35 16 19 1018.7 1018.7 -
14/02:00pm 22.3 - - - - SSE 28 32 15 17 1018.8 1018.8 -
14/01:30pm 22.5 - - - - SSE 26 32 14 17 1019.0 1019.0 -
14/01:00pm 22.5 - - - - SSE 28 33 15 18 1019.2 1019.2 -
14/12:30pm 22.3 - - - - SSE 26 32 14 17 1019.8 1019.8 -
14/12:00pm 22.4 - - - - SE 28 32 15 17 1020.3 1020.3 -
14/11:30am 22.3 - - - - SE 28 32 15 17 1020.7 1020.7 -
14/11:00am 22.2 - - - - SE 28 33 15 18 1021.0 1021.0 -
14/10:30am 22.2 - - - - SE 30 33 16 18 1021.4 1021.4 -
14/10:00am 22.1 - - - - SE 30 35 16 19 1021.6 1021.6 -
14/09:30am 22.2 - - - - SE 28 35 15 19 1021.6 1021.6 -
14/09:00am 22.4 - - - - SE 28 33 15 18 1021.8 1021.8 -
14/08:30am 22.2 - - - - ESE 28 37 15 20 1021.6 1021.6 -
14/08:00am 22.2 - - - - ESE 26 32 14 17 1021.4 1021.4 -
14/07:30am 22.2 - - - - ESE 28 33 15 18 1021.2 1021.2 -
14/07:00am 22.2 - - - - SE 26 32 14 17 1020.9 1020.9 -
14/06:30am 21.9 - - - - ESE 26 35 14 19 1020.6 1020.6 -
14/06:00am 22.0 - - - - ESE 26 32 14 17 1020.3 1020.3 -
14/05:30am 21.7 - - - - ESE 24 30 13 16 1020.0 1020.0 -
14/05:00am 21.9 - - - - ESE 24 30 13 16 1019.7 1019.7 -
14/04:30am 21.7 - - - - ESE 26 32 14 17 1019.5 1019.5 -
14/04:00am 21.7 - - - - E 30 35 16 19 1019.3 1019.3 -
14/03:30am 21.8 - - - - E 32 37 17 20 1019.1 1019.1 -
14/03:00am 21.9 - - - - E 32 35 17 19 1019.1 1019.1 -
14/02:30am 21.8 - - - - ESE 30 35 16 19 1019.3 1019.3 -
14/02:00am 22.0 - - - - ESE 32 35 17 19 1019.6 1019.6 -
14/01:30am 21.9 - - - - SE 32 39 17 21 1020.0 1020.0 -
14/01:00am 21.9 - - - - SE 30 37 16 20 1020.4 1020.4 -
14/12:30am 21.9 - - - - SE 32 39 17 21 1020.7 1020.7 -
14/12:00am 22.0 - - - - SE 32 39 17 21 1020.9 1020.9 -
 
Date/Time
EST
Temp
°C
App
Temp
°C
Dew
Point
°C
Rel
Hum
%
Delta-T
°C
Wind Press
QNH
hPa
Press
MSL
hPa
Rain since
9am
mm
Dir  Spd
km/h
Gust
km/h
Spd
kts
Gust
kts
13/11:30pm 22.3 - - - - SE 32 39 17 21 1021.1 1021.1 -
13/11:00pm 21.9 - - - - SE 30 37 16 20 1021.3 1021.3 -
13/10:30pm 22.3 - - - - SE 30 39 16 21 1021.2 1021.2 -
13/10:00pm 22.2 - - - - SE 32 39 17 21 1021.2 1021.2 -
13/09:30pm 22.2 - - - - SSE 32 39 17 21 1021.1 1021.1 -
13/09:00pm 22.3 - - - - SE 30 35 16 19 1021.3 1021.3 -
13/08:30pm 22.3 - - - - SSE 33 39 18 21 1021.1 1021.1 -
13/08:00pm 22.5 - - - - SSE 32 41 17 22 1021.1 1021.1 -
13/07:30pm 22.3 - - - - SSE 30 37 16 20 1020.7 1020.7 -
13/07:00pm 22.5 - - - - SSE 32 39 17 21 1020.5 1020.5 -
13/06:30pm 22.5 - - - - SSE 30 37 16 20 1020.2 1020.2 -
13/06:00pm 22.2 - - - - SSE 30 35 16 19 1019.9 1019.9 -
13/05:30pm 22.2 - - - - SSE 28 35 15 19 1019.5 1019.5 -
13/05:00pm 22.4 - - - - SSE 30 37 16 20 1019.0 1019.0 -
13/04:30pm 22.4 - - - - SSE 30 35 16 19 1018.9 1018.9 -
13/04:00pm 22.5 - - - - SSE 30 35 16 19 1018.8 1018.8 -
13/03:30pm 22.5 - - - - SSE 33 39 18 21 1018.7 1018.7 -
13/03:00pm 22.6 - - - - SSE 32 37 17 20 1018.6 1018.6 -
13/02:30pm 22.5 - - - - SE 33 39 18 21 1018.6 1018.6 -
13/02:00pm 22.1 - - - - SE 35 41 19 22 1018.7 1018.7 -
13/01:30pm 22.3 - - - - SE 35 43 19 23 1018.9 1018.9 -
13/01:00pm 22.8 - - - - SSE 37 44 20 24 1019.2 1019.2 -
13/12:30pm 22.4 - - - - SE 35 41 19 22 1019.7 1019.7 -
13/12:00pm 22.5 - - - - SE 35 41 19 22 1020.1 1020.1 -
13/11:30am 22.5 - - - - SE 35 43 19 23 1020.4 1020.4 -
13/11:00am 22.4 - - - - SE 33 37 18 20 1020.9 1020.9 -
13/10:30am 22.4 - - - - SE 33 41 18 22 1021.1 1021.1 -
13/10:00am 22.4 - - - - SE 33 39 18 21 1021.4 1021.4 -
13/09:30am 22.4 - - - - SE 33 37 18 20 1021.6 1021.6 -
13/09:00am 22.0 - - - - SE 32 37 17 20 1021.4 1021.4 -
13/08:30am 22.2 - - - - SE 33 41 18 22 1021.6 1021.6 -
13/08:00am 22.5 - - - - SE 35 41 19 22 1021.6 1021.6 -
13/07:30am 22.2 - - - - SE 37 43 20 23 1021.3 1021.3 -
13/07:00am 22.1 - - - - SE 32 39 17 21 1021.1 1021.1 -
13/06:30am 21.9 - - - - SE 35 41 19 22 1020.7 1020.7 -
13/06:00am 22.1 - - - - SE 35 39 19 21 1020.4 1020.4 -
13/05:30am 22.3 - - - - SE 35 41 19 22 1020.1 1020.1 -
13/05:00am 22.0 - - - - SE 41 48 22 26 1019.8 1019.8 -
13/04:30am 22.1 - - - - SE 33 39 18 21 1019.7 1019.7 -
13/04:00am 22.0 - - - - SE 33 39 18 21 1019.6 1019.6 -
13/03:30am 21.8 - - - - SSE 33 39 18 21 1019.3 1019.3 -
13/03:00am 21.6 - - - - SSE 32 39 17 21 1019.4 1019.4 -
13/02:30am 21.6 - - - - SE 28 35 15 19 1019.7 1019.7 -
13/02:00am 21.9 - - - - SSE 32 39 17 21 1019.9 1019.9 -
13/01:30am 22.1 - - - - SSE 28 32 15 17 1020.2 1020.2 -
13/01:00am 22.1 - - - - SSE 30 37 16 20 1020.4 1020.4 -
13/12:30am 21.8 - - - - SE 32 35 17 19 1020.6 1020.6 -
13/12:00am 21.9 - - - - SE 32 37 17 20 1021.0 1021.0 -
 
Date/Time
EST
Temp
°C
App
Temp
°C
Dew
Point
°C
Rel
Hum
%
Delta-T
°C
Wind Press
QNH
hPa
Press
MSL
hPa
Rain since
9am
mm
Dir  Spd
km/h
Gust
km/h
Spd
kts
Gust
kts
12/11:30pm 21.9 - - - - SE 33 39 18 21 1021.4 1021.4 -
12/11:00pm 22.0 - - - - SE 32 37 17 20 1021.6 1021.6 -
12/10:30pm 22.2 - - - - SE 32 39 17 21 1021.7 1021.7 -
12/10:00pm 22.2 - - - - SE 30 35 16 19 1021.9 1021.9 -
12/09:30pm 22.1 - - - - SE 30 37 16 20 1022.0 1022.0 -
12/09:00pm 22.1 - - - - SSE 32 43 17 23 1022.0 1022.0 -
12/08:30pm 22.2 - - - - SSE 33 39 18 21 1022.2 1022.2 -
12/08:00pm 22.3 - - - - SE 33 39 18 21 1022.2 1022.2 -
12/07:30pm 22.1 - - - - SE 33 39 18 21 1021.9 1021.9 -
12/07:00pm 22.3 - - - - SE 35 44 19 24 1021.7 1021.7 -
12/06:30pm 21.9 - - - - SE 28 35 15 19 1021.6 1021.6 -
12/06:04pm 22.1 - - - - SSE 32 56 17 30 1021.2 - -
12/06:03pm 22.1 - - - - SSE 33 56 18 30 1021.4 1021.4 -
12/06:00pm 22.3 - - - - SSE 30 39 16 21 1021.4 1021.4 -
12/05:30pm 22.4 - - - - SSE 30 35 16 19 1021.2 1021.2 -
12/05:00pm 22.3 - - - - SSE 33 41 18 22 1020.7 1020.7 -
12/04:30pm 22.2 - - - - SE 33 39 18 21 1020.4 1020.4 -

Other formats

Comma delimited format used in spreadsheet applications
http://www.bom.gov.au/fwo/IDQ60801/IDQ60801.94298.axf

JavaScript Object Notation format (JSON) in row-major order
http://www.bom.gov.au/fwo/IDQ60801/IDQ60801.94298.json

Data quality

Most of these data are generated automatically and are frequently updated. Quality checks on data are not normally performed. It is possible for incorrect values to appear. Refer to information at About Latest Weather Observations and please check the disclaimer before using these data.